sensor_id;sensor_type;location;lat;lon;timestamp;pressure;altitude;pressure_sealevel;temperature;humidity
19827;BME280;10074;52.018;4.726;2022-12-07T00:04:42;46417.75;;;-144.79;100.00
19827;BME280;10074;52.018;4.726;2022-12-07T00:09:42;46423.78;;;-144.79;100.00
19827;BME280;10074;52.018;4.726;2022-12-07T00:14:42;46413.75;;;-144.79;100.00
19827;BME280;10074;52.018;4.726;2022-12-07T00:19:43;46417.75;;;-144.79;100.00
19827;BME280;10074;52.018;4.726;2022-12-07T00:24:43;46405.72;;;-144.79;100.00
19827;BME280;10074;52.018;4.726;2022-12-07T00:29:43;46403.72;;;-144.79;100.00
19827;BME280;10074;52.018;4.726;2022-12-07T00:34:43;46419.75;;;-144.79;100.00
19827;BME280;10074;52.018;4.726;2022-12-07T00:39:45;46411.75;;;-144.79;100.00
19827;BME280;10074;52.018;4.726;2022-12-07T00:44:46;46413.75;;;-144.79;100.00
19827;BME280;10074;52.018;4.726;2022-12-07T00:49:46;46403.72;;;-144.79;100.00
19827;BME280;10074;52.018;4.726;2022-12-07T00:54:47;46409.75;;;-144.79;100.00
19827;BME280;10074;52.018;4.726;2022-12-07T00:59:48;46401.72;;;-144.79;100.00
19827;BME280;10074;52.018;4.726;2022-12-07T01:04:48;46409.75;;;-144.79;100.00
19827;BME280;10074;52.018;4.726;2022-12-07T01:09:48;46395.69;;;-144.79;100.00
19827;BME280;10074;52.018;4.726;2022-12-07T01:14:49;46401.72;;;-144.79;100.00
19827;BME280;10074;52.018;4.726;2022-12-07T01:19:49;46393.69;;;-144.79;100.00
19827;BME280;10074;52.018;4.726;2022-12-07T01:24:49;46411.75;;;-144.79;100.00
19827;BME280;10074;52.018;4.726;2022-12-07T01:29:50;46411.75;;;-144.79;100.00
19827;BME280;10074;52.018;4.726;2022-12-07T01:34:51;46409.75;;;-144.79;100.00
19827;BME280;10074;52.018;4.726;2022-12-07T01:39:51;46409.75;;;-144.79;100.00
19827;BME280;10074;52.018;4.726;2022-12-07T01:50:30;46413.75;;;-144.79;100.00
19827;BME280;10074;52.018;4.726;2022-12-07T01:55:34;46413.75;;;-144.79;100.00
19827;BME280;10074;52.018;4.726;2022-12-07T02:00:37;46405.72;;;-144.79;100.00
19827;BME280;10074;52.018;4.726;2022-12-07T02:05:40;46415.75;;;-144.79;100.00
19827;BME280;10074;52.018;4.726;2022-12-07T02:10:41;46411.75;;;-144.79;100.00
19827;BME280;10074;52.018;4.726;2022-12-07T02:31:19;46395.69;;;-144.79;100.00
19827;BME280;10074;52.018;4.726;2022-12-07T02:36:27;46403.72;;;-144.79;100.00
19827;BME280;10074;52.018;4.726;2022-12-07T02:41:33;46395.69;;;-144.79;100.00
19827;BME280;10074;52.018;4.726;2022-12-07T02:46:43;46401.72;;;-144.79;100.00
19827;BME280;10074;52.018;4.726;2022-12-07T02:51:46;46391.69;;;-144.79;100.00
19827;BME280;10074;52.018;4.726;2022-12-07T02:57:26;46397.72;;;-144.79;100.00
19827;BME280;10074;52.018;4.726;2022-12-07T03:13:49;46411.75;;;-144.79;100.00
19827;BME280;10074;52.018;4.726;2022-12-07T03:18:55;46397.72;;;-144.79;100.00
19827;BME280;10074;52.018;4.726;2022-12-07T03:23:58;46385.69;;;-144.79;100.00
19827;BME280;10074;52.018;4.726;2022-12-07T03:29:05;46391.69;;;-144.79;100.00
19827;BME280;10074;52.018;4.726;2022-12-07T03:34:12;46377.66;;;-144.79;100.00
19827;BME280;10074;52.018;4.726;2022-12-07T03:39:29;46385.69;;;-144.79;100.00
19827;BME280;10074;52.018;4.726;2022-12-07T03:44:33;46397.72;;;-144.79;100.00
19827;BME280;10074;52.018;4.726;2022-12-07T03:49:42;46419.75;;;-144.79;100.00
19827;BME280;10074;52.018;4.726;2022-12-07T03:55:05;46411.75;;;-144.79;100.00
19827;BME280;10074;52.018;4.726;2022-12-07T04:00:08;46399.72;;;-144.79;100.00
19827;BME280;10074;52.018;4.726;2022-12-07T04:05:09;46399.72;;;-144.79;100.00
19827;BME280;10074;52.018;4.726;2022-12-07T04:10:11;46401.72;;;-144.79;100.00
19827;BME280;10074;52.018;4.726;2022-12-07T04:15:11;46393.69;;;-144.79;100.00
19827;BME280;10074;52.018;4.726;2022-12-07T04:20:12;46387.69;;;-144.79;100.00
19827;BME280;10074;52.018;4.726;2022-12-07T04:25:13;46381.66;;;-144.79;100.00
19827;BME280;10074;52.018;4.726;2022-12-07T04:30:13;46387.69;;;-144.79;100.00
19827;BME280;10074;52.018;4.726;2022-12-07T04:35:13;46377.66;;;-144.79;100.00
19827;BME280;10074;52.018;4.726;2022-12-07T04:40:14;46387.69;;;-144.79;100.00
19827;BME280;10074;52.018;4.726;2022-12-07T04:45:14;46389.69;;;-144.79;100.00
19827;BME280;10074;52.018;4.726;2022-12-07T04:50:15;46393.69;;;-144.79;100.00
19827;BME280;10074;52.018;4.726;2022-12-07T04:55:15;46403.72;;;-144.79;100.00
19827;BME280;10074;52.018;4.726;2022-12-07T05:00:16;46395.69;;;-144.79;100.00
19827;BME280;10074;52.018;4.726;2022-12-07T05:05:16;46375.66;;;-144.79;100.00
19827;BME280;10074;52.018;4.726;2022-12-07T05:10:17;46387.69;;;-144.79;100.00
19827;BME280;10074;52.018;4.726;2022-12-07T05:15:17;46381.66;;;-144.79;100.00
19827;BME280;10074;52.018;4.726;2022-12-07T05:20:18;46379.66;;;-144.79;100.00
19827;BME280;10074;52.018;4.726;2022-12-07T05:25:18;46391.69;;;-144.79;100.00
19827;BME280;10074;52.018;4.726;2022-12-07T05:30:19;46375.66;;;-144.79;100.00
19827;BME280;10074;52.018;4.726;2022-12-07T05:35:19;46357.59;;;-144.79;100.00
19827;BME280;10074;52.018;4.726;2022-12-07T05:40:20;46371.63;;;-144.79;100.00
19827;BME280;10074;52.018;4.726;2022-12-07T05:45:20;46375.66;;;-144.79;100.00
19827;BME280;10074;52.018;4.726;2022-12-07T05:50:20;46383.66;;;-144.79;100.00
19827;BME280;10074;52.018;4.726;2022-12-07T05:55:21;46373.66;;;-144.79;100.00
19827;BME280;10074;52.018;4.726;2022-12-07T06:00:21;46375.66;;;-144.79;100.00
19827;BME280;10074;52.018;4.726;2022-12-07T06:05:22;46391.69;;;-144.79;100.00
19827;BME280;10074;52.018;4.726;2022-12-07T06:10:22;46383.66;;;-144.79;100.00
19827;BME280;10074;52.018;4.726;2022-12-07T06:15:23;46369.63;;;-144.79;100.00
19827;BME280;10074;52.018;4.726;2022-12-07T06:20:23;46369.63;;;-144.79;100.00
19827;BME280;10074;52.018;4.726;2022-12-07T06:25:24;46375.66;;;-144.79;100.00
19827;BME280;10074;52.018;4.726;2022-12-07T06:30:24;46373.66;;;-144.79;100.00
19827;BME280;10074;52.018;4.726;2022-12-07T06:35:24;46383.66;;;-144.79;100.00
19827;BME280;10074;52.018;4.726;2022-12-07T06:40:25;46371.63;;;-144.79;100.00
19827;BME280;10074;52.018;4.726;2022-12-07T06:45:25;46361.63;;;-144.79;100.00
19827;BME280;10074;52.018;4.726;2022-12-07T06:50:26;46381.66;;;-144.79;100.00
19827;BME280;10074;52.018;4.726;2022-12-07T06:55:26;46379.66;;;-144.79;100.00
19827;BME280;10074;52.018;4.726;2022-12-07T07:00:26;46375.66;;;-144.79;100.00
19827;BME280;10074;52.018;4.726;2022-12-07T07:05:27;46387.69;;;-144.79;100.00
19827;BME280;10074;52.018;4.726;2022-12-07T07:10:28;46375.66;;;-144.79;100.00
19827;BME280;10074;52.018;4.726;2022-12-07T07:15:28;46367.63;;;-144.79;100.00
19827;BME280;10074;52.018;4.726;2022-12-07T07:20:28;46349.59;;;-144.79;100.00
19827;BME280;10074;52.018;4.726;2022-12-07T07:25:32;46349.59;;;-144.79;100.00
19827;BME280;10074;52.018;4.726;2022-12-07T07:30:33;46345.56;;;-144.79;100.00
19827;BME280;10074;52.018;4.726;2022-12-07T07:35:35;46353.59;;;-144.79;100.00
19827;BME280;10074;52.018;4.726;2022-12-07T07:40:35;46349.59;;;-144.79;100.00
19827;BME280;10074;52.018;4.726;2022-12-07T07:45:36;46347.56;;;-144.79;100.00
19827;BME280;10074;52.018;4.726;2022-12-07T07:50:37;46347.56;;;-144.79;100.00
19827;BME280;10074;52.018;4.726;2022-12-07T07:55:37;46339.56;;;-144.79;100.00
19827;BME280;10074;52.018;4.726;2022-12-07T08:00:38;46341.56;;;-144.79;100.00
19827;BME280;10074;52.018;4.726;2022-12-07T08:05:38;46337.56;;;-144.79;100.00
19827;BME280;10074;52.018;4.726;2022-12-07T08:10:38;46331.53;;;-144.79;100.00
19827;BME280;10074;52.018;4.726;2022-12-07T08:15:45;46327.53;;;-144.79;100.00
19827;BME280;10074;52.018;4.726;2022-12-07T08:20:46;46327.53;;;-144.79;100.00
19827;BME280;10074;52.018;4.726;2022-12-07T08:25:46;46331.53;;;-144.79;100.00
19827;BME280;10074;52.018;4.726;2022-12-07T08:30:47;46323.53;;;-144.79;100.00
19827;BME280;10074;52.018;4.726;2022-12-07T08:35:47;46335.53;;;-144.79;100.00
19827;BME280;10074;52.018;4.726;2022-12-07T08:40:55;46329.53;;;-144.79;100.00
19827;BME280;10074;52.018;4.726;2022-12-07T08:46:07;46321.50;;;-144.79;100.00
19827;BME280;10074;52.018;4.726;2022-12-07T08:51:09;46347.56;;;-144.79;100.00
19827;BME280;10074;52.018;4.726;2022-12-07T08:56:09;46315.50;;;-144.79;100.00
19827;BME280;10074;52.018;4.726;2022-12-07T09:01:10;46303.47;;;-144.79;100.00
19827;BME280;10074;52.018;4.726;2022-12-07T09:06:10;46317.50;;;-144.79;100.00
19827;BME280;10074;52.018;4.726;2022-12-07T09:11:11;46331.53;;;-144.79;100.00
19827;BME280;10074;52.018;4.726;2022-12-07T09:16:11;46331.53;;;-144.79;100.00
19827;BME280;10074;52.018;4.726;2022-12-07T09:21:11;46345.56;;;-144.79;100.00
19827;BME280;10074;52.018;4.726;2022-12-07T09:26:12;46347.56;;;-144.79;100.00
19827;BME280;10074;52.018;4.726;2022-12-07T09:31:12;46329.53;;;-144.79;100.00
19827;BME280;10074;52.018;4.726;2022-12-07T09:36:12;46341.56;;;-144.79;100.00
19827;BME280;10074;52.018;4.726;2022-12-07T09:41:13;46343.56;;;-144.79;100.00
19827;BME280;10074;52.018;4.726;2022-12-07T09:46:15;46337.56;;;-144.79;100.00
19827;BME280;10074;52.018;4.726;2022-12-07T09:51:22;46335.53;;;-144.79;100.00
19827;BME280;10074;52.018;4.726;2022-12-07T09:56:23;46333.53;;;-144.79;100.00
19827;BME280;10074;52.018;4.726;2022-12-07T10:01:24;46325.53;;;-144.79;100.00
19827;BME280;10074;52.018;4.726;2022-12-07T10:06:25;46327.53;;;-144.79;100.00
19827;BME280;10074;52.018;4.726;2022-12-07T10:11:26;46345.56;;;-144.79;100.00
19827;BME280;10074;52.018;4.726;2022-12-07T10:16:32;46327.53;;;-144.79;100.00
19827;BME280;10074;52.018;4.726;2022-12-07T10:21:35;46347.56;;;-144.79;100.00
19827;BME280;10074;52.018;4.726;2022-12-07T10:26:41;46335.53;;;-144.79;100.00
19827;BME280;10074;52.018;4.726;2022-12-07T10:31:56;46319.50;;;-144.79;100.00
19827;BME280;10074;52.018;4.726;2022-12-07T10:37:14;46323.53;;;-144.79;100.00
19827;BME280;10074;52.018;4.726;2022-12-07T10:47:42;46321.50;;;-144.79;100.00
19827;BME280;10074;52.018;4.726;2022-12-07T11:03:30;46307.47;;;-144.79;100.00
19827;BME280;10074;52.018;4.726;2022-12-07T11:13:55;46315.50;;;-144.79;100.00
19827;BME280;10074;52.018;4.726;2022-12-07T11:19:19;46345.56;;;-144.79;100.00
19827;BME280;10074;52.018;4.726;2022-12-07T11:24:56;46345.56;;;-144.79;100.00
19827;BME280;10074;52.018;4.726;2022-12-07T11:35:28;46315.50;;;-144.79;100.00
19827;BME280;10074;52.018;4.726;2022-12-07T11:40:31;46317.50;;;-144.79;100.00
19827;BME280;10074;52.018;4.726;2022-12-07T11:45:41;46327.53;;;-144.79;100.00
19827;BME280;10074;52.018;4.726;2022-12-07T11:50:46;46333.53;;;-144.79;100.00
19827;BME280;10074;52.018;4.726;2022-12-07T12:06:10;46347.56;;;-144.79;100.00
19827;BME280;10074;52.018;4.726;2022-12-07T12:17:09;46331.53;;;-144.79;100.00
19827;BME280;10074;52.018;4.726;2022-12-07T12:22:18;46363.63;;;-144.79;100.00
19827;BME280;10074;52.018;4.726;2022-12-07T12:27:25;46355.59;;;-144.79;100.00
19827;BME280;10074;52.018;4.726;2022-12-07T12:32:53;46351.59;;;-144.79;100.00
19827;BME280;10074;52.018;4.726;2022-12-07T12:38:33;46337.56;;;-144.79;100.00
19827;BME280;10074;52.018;4.726;2022-12-07T12:43:51;46345.56;;;-144.79;100.00
19827;BME280;10074;52.018;4.726;2022-12-07T12:49:19;46355.59;;;-144.79;100.00
19827;BME280;10074;52.018;4.726;2022-12-07T13:04:40;46333.53;;;-144.79;100.00
19827;BME280;10074;52.018;4.726;2022-12-07T13:09:48;46323.53;;;-144.79;100.00
19827;BME280;10074;52.018;4.726;2022-12-07T13:14:58;46319.50;;;-144.79;100.00
19827;BME280;10074;52.018;4.726;2022-12-07T13:20:06;46303.47;;;-144.79;100.00
19827;BME280;10074;52.018;4.726;2022-12-07T13:25:09;46401.72;;;-144.79;100.00
19827;BME280;10074;52.018;4.726;2022-12-07T13:30:16;46431.78;;;-144.79;100.00
19827;BME280;10074;52.018;4.726;2022-12-07T13:35:47;46453.84;;;-144.79;100.00
19827;BME280;10074;52.018;4.726;2022-12-07T13:46:08;46423.78;;;-144.79;100.00
19827;BME280;10074;52.018;4.726;2022-12-07T13:51:19;46399.72;;;-144.79;100.00
19827;BME280;10074;52.018;4.726;2022-12-07T13:56:28;46413.75;;;-144.79;100.00
19827;BME280;10074;52.018;4.726;2022-12-07T14:01:31;46347.56;;;-144.79;100.00
19827;BME280;10074;52.018;4.726;2022-12-07T14:06:32;46321.50;;;-144.79;100.00
19827;BME280;10074;52.018;4.726;2022-12-07T14:11:32;46321.50;;;-144.79;100.00
19827;BME280;10074;52.018;4.726;2022-12-07T14:16:36;46327.53;;;-144.79;100.00
19827;BME280;10074;52.018;4.726;2022-12-07T14:21:37;46349.59;;;-144.79;100.00
19827;BME280;10074;52.018;4.726;2022-12-07T14:26:39;46355.59;;;-144.79;100.00
19827;BME280;10074;52.018;4.726;2022-12-07T14:31:40;46379.66;;;-144.79;100.00
19827;BME280;10074;52.018;4.726;2022-12-07T14:36:40;46399.72;;;-144.79;100.00
19827;BME280;10074;52.018;4.726;2022-12-07T14:41:40;46387.69;;;-144.79;100.00
19827;BME280;10074;52.018;4.726;2022-12-07T14:46:52;46385.69;;;-144.79;100.00
19827;BME280;10074;52.018;4.726;2022-12-07T14:51:53;46383.66;;;-144.79;100.00
19827;BME280;10074;52.018;4.726;2022-12-07T14:56:54;46377.66;;;-144.79;100.00
19827;BME280;10074;52.018;4.726;2022-12-07T15:01:54;46355.59;;;-144.79;100.00
19827;BME280;10074;52.018;4.726;2022-12-07T15:06:59;46361.63;;;-144.79;100.00
19827;BME280;10074;52.018;4.726;2022-12-07T15:12:00;46367.63;;;-144.79;100.00
19827;BME280;10074;52.018;4.726;2022-12-07T15:17:00;46377.66;;;-144.79;100.00
19827;BME280;10074;52.018;4.726;2022-12-07T15:22:01;46367.63;;;-144.79;100.00
19827;BME280;10074;52.018;4.726;2022-12-07T15:27:01;46393.69;;;-144.79;100.00
19827;BME280;10074;52.018;4.726;2022-12-07T15:32:02;46395.69;;;-144.79;100.00
19827;BME280;10074;52.018;4.726;2022-12-07T15:37:03;46393.69;;;-144.79;100.00
19827;BME280;10074;52.018;4.726;2022-12-07T15:42:04;46425.78;;;-144.79;100.00
19827;BME280;10074;52.018;4.726;2022-12-07T15:47:05;46427.78;;;-144.79;100.00
19827;BME280;10074;52.018;4.726;2022-12-07T15:52:05;46429.78;;;-144.79;100.00
19827;BME280;10074;52.018;4.726;2022-12-07T15:57:06;46441.81;;;-144.79;100.00
19827;BME280;10074;52.018;4.726;2022-12-07T16:02:08;46469.88;;;-144.79;100.00
19827;BME280;10074;52.018;4.726;2022-12-07T16:07:10;46469.88;;;-144.79;100.00
19827;BME280;10074;52.018;4.726;2022-12-07T16:12:12;46469.88;;;-144.79;100.00
19827;BME280;10074;52.018;4.726;2022-12-07T16:17:12;46467.88;;;-144.79;100.00
19827;BME280;10074;52.018;4.726;2022-12-07T16:22:13;46471.91;;;-144.79;100.00
19827;BME280;10074;52.018;4.726;2022-12-07T16:27:13;46469.88;;;-144.79;100.00
19827;BME280;10074;52.018;4.726;2022-12-07T16:32:13;46465.88;;;-144.79;100.00
19827;BME280;10074;52.018;4.726;2022-12-07T16:37:14;46465.88;;;-144.79;100.00
19827;BME280;10074;52.018;4.726;2022-12-07T16:42:14;46467.88;;;-144.79;100.00
19827;BME280;10074;52.018;4.726;2022-12-07T16:47:14;46467.88;;;-144.79;100.00
19827;BME280;10074;52.018;4.726;2022-12-07T16:52:14;46467.88;;;-144.79;100.00
19827;BME280;10074;52.018;4.726;2022-12-07T16:57:16;46461.88;;;-144.79;100.00
19827;BME280;10074;52.018;4.726;2022-12-07T17:02:16;46463.88;;;-144.79;100.00
19827;BME280;10074;52.018;4.726;2022-12-07T17:07:17;46461.88;;;-144.79;100.00
19827;BME280;10074;52.018;4.726;2022-12-07T17:12:17;46455.84;;;-144.79;100.00
19827;BME280;10074;52.018;4.726;2022-12-07T17:17:17;46455.84;;;-144.79;100.00
19827;BME280;10074;52.018;4.726;2022-12-07T17:22:18;46463.88;;;-144.79;100.00
19827;BME280;10074;52.018;4.726;2022-12-07T17:27:18;46457.88;;;-144.79;100.00
19827;BME280;10074;52.018;4.726;2022-12-07T17:32:19;46455.84;;;-144.79;100.00
19827;BME280;10074;52.018;4.726;2022-12-07T17:37:19;46453.84;;;-144.79;100.00
19827;BME280;10074;52.018;4.726;2022-12-07T17:42:19;46451.84;;;-144.79;100.00
19827;BME280;10074;52.018;4.726;2022-12-07T17:47:39;46447.84;;;-144.79;100.00
19827;BME280;10074;52.018;4.726;2022-12-07T17:52:39;46447.84;;;-144.79;100.00
19827;BME280;10074;52.018;4.726;2022-12-07T17:57:58;46451.84;;;-144.79;100.00
19827;BME280;10074;52.018;4.726;2022-12-07T18:02:58;46453.84;;;-144.79;100.00
19827;BME280;10074;52.018;4.726;2022-12-07T18:08:00;46453.84;;;-144.79;100.00
19827;BME280;10074;52.018;4.726;2022-12-07T18:13:00;46451.84;;;-144.79;100.00
19827;BME280;10074;52.018;4.726;2022-12-07T18:18:19;46445.84;;;-144.79;100.00
19827;BME280;10074;52.018;4.726;2022-12-07T18:23:20;46441.81;;;-144.79;100.00
19827;BME280;10074;52.018;4.726;2022-12-07T18:28:20;46431.78;;;-144.79;100.00
19827;BME280;10074;52.018;4.726;2022-12-07T18:33:20;46435.81;;;-144.79;100.00
19827;BME280;10074;52.018;4.726;2022-12-07T18:38:21;46447.84;;;-144.79;100.00
19827;BME280;10074;52.018;4.726;2022-12-07T18:43:22;46439.81;;;-144.79;100.00
19827;BME280;10074;52.018;4.726;2022-12-07T18:48:24;46441.81;;;-144.79;100.00
19827;BME280;10074;52.018;4.726;2022-12-07T18:53:24;46435.81;;;-144.79;100.00
19827;BME280;10074;52.018;4.726;2022-12-07T18:58:25;46439.81;;;-144.79;100.00
19827;BME280;10074;52.018;4.726;2022-12-07T19:03:26;46435.81;;;-144.79;100.00
19827;BME280;10074;52.018;4.726;2022-12-07T19:08:26;46433.81;;;-144.79;100.00
19827;BME280;10074;52.018;4.726;2022-12-07T19:13:27;46431.78;;;-144.79;100.00
19827;BME280;10074;52.018;4.726;2022-12-07T19:18:28;46423.78;;;-144.79;100.00
19827;BME280;10074;52.018;4.726;2022-12-07T19:23:28;46441.81;;;-144.79;100.00
19827;BME280;10074;52.018;4.726;2022-12-07T19:28:29;46439.81;;;-144.79;100.00
19827;BME280;10074;52.018;4.726;2022-12-07T19:33:29;46433.81;;;-144.79;100.00
19827;BME280;10074;52.018;4.726;2022-12-07T19:38:30;46431.78;;;-144.79;100.00
19827;BME280;10074;52.018;4.726;2022-12-07T19:43:32;46433.81;;;-144.79;100.00
19827;BME280;10074;52.018;4.726;2022-12-07T19:48:32;46435.81;;;-144.79;100.00
19827;BME280;10074;52.018;4.726;2022-12-07T19:53:33;46433.81;;;-144.79;100.00
19827;BME280;10074;52.018;4.726;2022-12-07T19:58:33;46431.78;;;-144.79;100.00
19827;BME280;10074;52.018;4.726;2022-12-07T20:03:33;46435.81;;;-144.79;100.00
19827;BME280;10074;52.018;4.726;2022-12-07T20:08:33;46433.81;;;-144.79;100.00
19827;BME280;10074;52.018;4.726;2022-12-07T20:13:34;46433.81;;;-144.79;100.00
19827;BME280;10074;52.018;4.726;2022-12-07T20:18:34;46427.78;;;-144.79;100.00
19827;BME280;10074;52.018;4.726;2022-12-07T20:23:34;46431.78;;;-144.79;100.00
19827;BME280;10074;52.018;4.726;2022-12-07T20:28:35;46431.78;;;-144.79;100.00
19827;BME280;10074;52.018;4.726;2022-12-07T20:33:36;46433.81;;;-144.79;100.00
19827;BME280;10074;52.018;4.726;2022-12-07T20:38:36;46431.78;;;-144.79;100.00
19827;BME280;10074;52.018;4.726;2022-12-07T20:43:36;46435.81;;;-144.79;100.00
19827;BME280;10074;52.018;4.726;2022-12-07T20:48:37;46431.78;;;-144.79;100.00
19827;BME280;10074;52.018;4.726;2022-12-07T20:53:37;46423.78;;;-144.79;100.00
19827;BME280;10074;52.018;4.726;2022-12-07T20:58:37;46427.78;;;-144.79;100.00
19827;BME280;10074;52.018;4.726;2022-12-07T21:03:38;46425.78;;;-144.79;100.00
19827;BME280;10074;52.018;4.726;2022-12-07T21:08:38;46423.78;;;-144.79;100.00
19827;BME280;10074;52.018;4.726;2022-12-07T21:13:42;46423.78;;;-144.79;100.00
19827;BME280;10074;52.018;4.726;2022-12-07T21:18:43;46431.78;;;-144.79;100.00
19827;BME280;10074;52.018;4.726;2022-12-07T21:23:48;46421.78;;;-144.79;100.00
19827;BME280;10074;52.018;4.726;2022-12-07T21:28:50;46427.78;;;-144.79;100.00
19827;BME280;10074;52.018;4.726;2022-12-07T21:33:51;46421.78;;;-144.79;100.00
19827;BME280;10074;52.018;4.726;2022-12-07T21:38:51;46423.78;;;-144.79;100.00
19827;BME280;10074;52.018;4.726;2022-12-07T21:43:52;46425.78;;;-144.79;100.00
19827;BME280;10074;52.018;4.726;2022-12-07T21:48:54;46423.78;;;-144.79;100.00
19827;BME280;10074;52.018;4.726;2022-12-07T21:53:57;46427.78;;;-144.79;100.00
19827;BME280;10074;52.018;4.726;2022-12-07T21:59:00;46427.78;;;-144.79;100.00
19827;BME280;10074;52.018;4.726;2022-12-07T22:04:15;46419.75;;;-144.79;100.00
19827;BME280;10074;52.018;4.726;2022-12-07T22:09:16;46417.75;;;-144.79;100.00
19827;BME280;10074;52.018;4.726;2022-12-07T22:14:18;46419.75;;;-144.79;100.00
19827;BME280;10074;52.018;4.726;2022-12-07T22:19:37;46421.78;;;-144.79;100.00
19827;BME280;10074;52.018;4.726;2022-12-07T22:24:37;46421.78;;;-144.79;100.00
19827;BME280;10074;52.018;4.726;2022-12-07T22:29:38;46417.75;;;-144.79;100.00
19827;BME280;10074;52.018;4.726;2022-12-07T22:34:39;46411.75;;;-144.79;100.00
19827;BME280;10074;52.018;4.726;2022-12-07T22:39:39;46417.75;;;-144.79;100.00
19827;BME280;10074;52.018;4.726;2022-12-07T22:44:39;46423.78;;;-144.79;100.00
19827;BME280;10074;52.018;4.726;2022-12-07T22:49:42;46415.75;;;-144.79;100.00
19827;BME280;10074;52.018;4.726;2022-12-07T22:54:42;46419.75;;;-144.79;100.00
19827;BME280;10074;52.018;4.726;2022-12-07T22:59:43;46413.75;;;-144.79;100.00
19827;BME280;10074;52.018;4.726;2022-12-07T23:04:43;46419.75;;;-144.79;100.00
19827;BME280;10074;52.018;4.726;2022-12-07T23:09:43;46411.75;;;-144.79;100.00
19827;BME280;10074;52.018;4.726;2022-12-07T23:14:44;46399.72;;;-144.79;100.00
19827;BME280;10074;52.018;4.726;2022-12-07T23:19:44;46405.72;;;-144.79;100.00
19827;BME280;10074;52.018;4.726;2022-12-07T23:24:45;46407.72;;;-144.79;100.00
19827;BME280;10074;52.018;4.726;2022-12-07T23:29:45;46403.72;;;-144.79;100.00
19827;BME280;10074;52.018;4.726;2022-12-07T23:34:46;46405.72;;;-144.79;100.00
19827;BME280;10074;52.018;4.726;2022-12-07T23:39:46;46413.75;;;-144.79;100.00
19827;BME280;10074;52.018;4.726;2022-12-07T23:44:47;46397.72;;;-144.79;100.00
19827;BME280;10074;52.018;4.726;2022-12-07T23:49:47;46413.75;;;-144.79;100.00
19827;BME280;10074;52.018;4.726;2022-12-07T23:54:48;46413.75;;;-144.79;100.00
19827;BME280;10074;52.018;4.726;2022-12-07T23:59:48;46411.75;;;-144.79;100.00
